createdAt,value
2018-07-08T00:00:23.045Z,20.90
2018-07-08T00:02:55.334Z,20.90
2018-07-08T00:05:27.812Z,20.80
2018-07-08T00:08:00.073Z,20.80
2018-07-08T00:10:32.428Z,20.80
2018-07-08T00:13:04.876Z,20.70
2018-07-08T00:15:37.139Z,20.70
2018-07-08T00:18:10.656Z,20.60
2018-07-08T00:20:43.987Z,20.50
2018-07-08T00:23:16.925Z,20.50
2018-07-08T00:25:50.326Z,20.40
2018-07-08T00:29:08.178Z,20.40
2018-07-08T00:31:40.412Z,20.40
2018-07-08T00:34:12.629Z,20.40
2018-07-08T00:36:44.962Z,20.20
2018-07-08T00:39:17.062Z,20.20
2018-07-08T00:41:49.258Z,20.20
2018-07-08T00:44:21.652Z,20.20
2018-07-08T00:47:30.518Z,20.20
2018-07-08T00:50:02.928Z,20.10
2018-07-08T00:52:35.407Z,20.10
2018-07-08T00:55:07.884Z,20.10
2018-07-08T00:57:40.267Z,20.00
2018-07-08T01:00:19.078Z,19.90
2018-07-08T01:02:51.458Z,19.90
2018-07-08T01:05:24.198Z,19.90
2018-07-08T01:07:56.703Z,19.80
2018-07-08T01:13:50.716Z,19.70
2018-07-08T01:16:23.408Z,19.70
2018-07-08T01:18:57.086Z,19.70
2018-07-08T01:21:29.820Z,19.70
2018-07-08T01:24:02.518Z,19.70
2018-07-08T01:26:35.651Z,19.60
2018-07-08T01:32:39.650Z,19.60
2018-07-08T01:35:14.770Z,19.50
2018-07-08T01:37:47.489Z,19.50
2018-07-08T01:40:21.231Z,19.50
2018-07-08T01:42:53.880Z,19.50
2018-07-08T01:45:26.692Z,19.40
2018-07-08T01:47:59.421Z,19.30
2018-07-08T01:50:32.136Z,19.20
2018-07-08T01:53:05.688Z,19.10
2018-07-08T01:58:59.403Z,19.00
2018-07-08T02:01:31.871Z,19.00
2018-07-08T02:04:04.581Z,19.10
2018-07-08T02:06:37.006Z,19.10
2018-07-08T02:09:11.374Z,19.00
2018-07-08T02:11:47.597Z,19.00
2018-07-08T02:14:23.297Z,18.90
2018-07-08T02:16:57.462Z,18.80
2018-07-08T02:19:36.846Z,18.80
2018-07-08T02:22:16.452Z,18.70
2018-07-08T02:24:48.914Z,18.70
2018-07-08T02:27:23.000Z,18.70
2018-07-08T02:32:27.000Z,18.60
2018-07-08T02:34:59.419Z,18.50
2018-07-08T02:37:32.168Z,18.40
2018-07-08T02:40:05.317Z,18.40
2018-07-08T02:42:39.150Z,18.30
2018-07-08T02:45:12.863Z,18.30
2018-07-08T02:47:53.808Z,18.30
2018-07-08T02:50:26.658Z,18.20
2018-07-08T02:53:00.785Z,18.20
2018-07-08T02:55:41.764Z,18.10
2018-07-08T02:58:14.384Z,18.10
2018-07-08T03:00:47.280Z,18.10
2018-07-08T03:03:22.151Z,18.00
2018-07-08T03:05:54.616Z,18.00
2018-07-08T03:08:27.029Z,18.00
2018-07-08T03:10:59.389Z,18.00
2018-07-08T03:13:32.231Z,18.00
2018-07-08T03:16:04.787Z,18.00
2018-07-08T03:18:37.624Z,18.00
2018-07-08T03:21:14.990Z,18.00
2018-07-08T03:23:47.590Z,18.00
2018-07-08T03:26:19.966Z,18.00
2018-07-08T03:28:53.083Z,18.00
2018-07-08T03:36:54.570Z,17.90
2018-07-08T03:39:30.801Z,17.90
2018-07-08T03:42:03.307Z,18.00
2018-07-08T03:44:35.698Z,18.00
2018-07-08T03:47:08.393Z,18.00
2018-07-08T03:53:01.876Z,17.60
2018-07-08T03:55:34.740Z,17.50
2018-07-08T03:58:07.549Z,17.40
2018-07-08T04:00:47.536Z,17.30
2018-07-08T04:03:20.414Z,17.30
2018-07-08T04:05:53.055Z,17.30
2018-07-08T04:08:25.866Z,17.30
2018-07-08T04:10:58.417Z,17.20
2018-07-08T04:13:31.451Z,17.20
2018-07-08T04:16:04.268Z,17.20
2018-07-08T04:18:36.980Z,17.10
2018-07-08T04:21:09.783Z,17.10
2018-07-08T04:23:42.408Z,17.10
2018-07-08T04:26:15.120Z,17.00
2018-07-08T04:28:47.912Z,17.00
2018-07-08T04:31:20.763Z,16.90
2018-07-08T04:33:53.520Z,16.90
2018-07-08T04:36:26.268Z,16.90
2018-07-08T04:38:58.931Z,16.90
2018-07-08T04:41:31.731Z,16.90
2018-07-08T04:44:04.475Z,16.90
2018-07-08T04:46:37.236Z,16.90
2018-07-08T04:49:10.178Z,17.00
2018-07-08T04:51:42.872Z,16.90
2018-07-08T04:54:16.717Z,16.90
2018-07-08T04:56:49.463Z,16.90
2018-07-08T04:59:22.139Z,16.90
2018-07-08T05:01:55.059Z,16.90
2018-07-08T05:04:27.810Z,16.80
2018-07-08T05:07:01.324Z,16.80
2018-07-08T05:09:34.165Z,16.80
2018-07-08T05:12:06.830Z,16.70
2018-07-08T05:14:39.517Z,16.70
2018-07-08T05:17:12.700Z,16.70
2018-07-08T05:19:45.648Z,16.60
2018-07-08T05:22:18.192Z,16.60
2018-07-08T05:24:50.815Z,16.60
2018-07-08T05:27:23.630Z,16.60
2018-07-08T05:29:56.595Z,16.50
2018-07-08T05:32:29.451Z,16.50
2018-07-08T05:35:02.029Z,16.50
2018-07-08T05:37:34.752Z,16.50
2018-07-08T05:40:07.867Z,16.50
2018-07-08T05:42:40.613Z,16.40
2018-07-08T05:45:13.459Z,16.40
2018-07-08T05:47:46.295Z,16.40
2018-07-08T05:50:18.944Z,16.30
2018-07-08T05:52:51.819Z,16.30
2018-07-08T05:55:24.547Z,16.30
2018-07-08T05:57:57.710Z,16.30
2018-07-08T06:00:30.656Z,16.30
2018-07-08T06:03:03.488Z,16.30
2018-07-08T06:05:36.147Z,16.30
2018-07-08T06:08:08.921Z,16.30
2018-07-08T06:10:41.617Z,16.20
2018-07-08T06:13:14.358Z,16.20
2018-07-08T06:15:46.976Z,16.20
2018-07-08T06:18:19.864Z,16.20
2018-07-08T06:20:53.103Z,16.10
2018-07-08T06:23:25.819Z,16.10
2018-07-08T06:25:59.100Z,16.20
2018-07-08T06:28:31.809Z,16.20
2018-07-08T06:31:04.957Z,16.20
2018-07-08T06:33:37.855Z,16.20
2018-07-08T06:39:30.790Z,16.30
2018-07-08T06:42:03.175Z,16.30
2018-07-08T06:44:35.532Z,16.30
2018-07-08T06:49:39.455Z,16.30
2018-07-08T06:52:11.934Z,16.40
2018-07-08T06:54:44.714Z,16.40
2018-07-08T06:57:17.173Z,16.40
2018-07-08T06:59:49.458Z,16.40
2018-07-08T07:02:21.911Z,16.40
2018-07-08T07:04:54.479Z,16.40
2018-07-08T07:07:27.668Z,16.30
2018-07-08T07:10:00.180Z,16.30
2018-07-08T07:12:32.692Z,16.30
2018-07-08T07:15:05.093Z,16.30
2018-07-08T07:17:37.467Z,16.30
2018-07-08T07:20:10.072Z,16.30
2018-07-08T07:22:42.798Z,16.30
2018-07-08T07:25:15.292Z,16.30
2018-07-08T07:27:47.572Z,16.30
2018-07-08T07:30:21.961Z,16.20
2018-07-08T07:32:54.610Z,16.20
2018-07-08T07:35:27.358Z,16.20
2018-07-08T07:37:59.733Z,16.20
2018-07-08T07:40:32.304Z,16.20
2018-07-08T07:43:05.260Z,16.20
2018-07-08T07:45:37.899Z,16.10
2018-07-08T07:48:10.282Z,16.10
2018-07-08T07:50:42.609Z,16.10
2018-07-08T07:53:15.074Z,16.00
2018-07-08T07:55:47.672Z,16.00
2018-07-08T07:58:20.100Z,16.00
2018-07-08T08:00:52.508Z,16.00
2018-07-08T08:03:25.609Z,16.00
2018-07-08T08:05:57.906Z,16.00
2018-07-08T08:08:30.407Z,16.00
2018-07-08T08:11:02.825Z,16.00
2018-07-08T08:13:35.151Z,16.00
2018-07-08T08:16:07.495Z,16.00
2018-07-08T08:18:39.898Z,16.10
2018-07-08T08:21:12.466Z,16.10
2018-07-08T08:23:44.861Z,16.20
2018-07-08T08:26:17.318Z,16.20
2018-07-08T08:28:49.761Z,16.20
2018-07-08T08:31:22.083Z,16.30
2018-07-08T08:35:22.270Z,16.30
2018-07-08T08:37:58.424Z,16.30
2018-07-08T08:40:32.086Z,16.30
2018-07-08T08:43:04.640Z,16.30
2018-07-08T08:45:36.916Z,16.30
2018-07-08T08:48:33.846Z,16.40
2018-07-08T08:54:27.466Z,16.40
2018-07-08T08:56:59.859Z,16.40
2018-07-08T08:59:32.117Z,16.30
2018-07-08T09:02:04.329Z,16.30
2018-07-08T09:04:36.544Z,16.30
2018-07-08T09:07:09.540Z,16.30
2018-07-08T09:09:41.735Z,16.30
2018-07-08T09:12:14.414Z,16.30
2018-07-08T09:14:46.916Z,16.30
2018-07-08T09:17:19.172Z,16.30
2018-07-08T09:19:51.746Z,16.30
2018-07-08T09:22:23.952Z,16.30
2018-07-08T09:24:56.492Z,16.20
2018-07-08T09:27:28.867Z,16.20
2018-07-08T09:30:00.990Z,16.10
2018-07-08T09:35:54.542Z,15.90
2018-07-08T09:38:26.913Z,15.90
2018-07-08T09:43:30.593Z,15.80
2018-07-08T09:46:35.440Z,15.80
2018-07-08T09:49:07.967Z,15.80
2018-07-08T09:51:40.426Z,15.80
2018-07-08T09:54:13.062Z,15.90
2018-07-08T09:56:45.620Z,15.90
2018-07-08T09:59:54.100Z,15.90
2018-07-08T10:02:26.958Z,16.00
2018-07-08T10:04:59.584Z,16.10
2018-07-08T10:07:32.246Z,16.00
2018-07-08T10:10:04.863Z,16.10
2018-07-08T10:12:37.450Z,16.10
2018-07-08T10:15:10.084Z,16.10
2018-07-08T10:17:42.742Z,16.10
2018-07-08T10:20:15.387Z,16.10
2018-07-08T10:22:48.464Z,16.10
2018-07-08T10:25:21.034Z,16.00
2018-07-08T10:28:24.345Z,15.90
2018-07-08T10:30:57.237Z,15.90
2018-07-08T10:33:33.929Z,15.80
2018-07-08T10:36:07.169Z,15.80
2018-07-08T10:42:00.580Z,15.70
2018-07-08T10:44:33.327Z,15.70
2018-07-08T10:47:05.843Z,15.70
2018-07-08T10:49:38.631Z,15.70
2018-07-08T10:52:11.188Z,15.70
2018-07-08T10:54:43.849Z,15.70
2018-07-08T10:57:16.647Z,15.70
2018-07-08T10:59:49.222Z,15.80
2018-07-08T11:02:21.828Z,15.80
2018-07-08T11:04:54.526Z,15.80
2018-07-08T11:07:27.219Z,15.80
2018-07-08T11:10:00.279Z,15.80
2018-07-08T11:12:32.820Z,15.70
2018-07-08T11:15:05.428Z,15.70
2018-07-08T11:17:38.219Z,15.60
2018-07-08T11:20:11.984Z,15.60
2018-07-08T11:22:44.791Z,15.60
2018-07-08T11:25:18.550Z,15.60
2018-07-08T11:27:53.695Z,15.60
2018-07-08T11:30:26.471Z,15.60
2018-07-08T11:33:07.675Z,15.50
2018-07-08T11:35:40.332Z,15.50
2018-07-08T11:38:12.870Z,15.60
2018-07-08T11:40:45.487Z,15.60
2018-07-08T11:43:18.174Z,15.70
2018-07-08T11:45:50.699Z,15.60
2018-07-08T11:48:23.409Z,15.70
2018-07-08T11:50:56.080Z,15.70
2018-07-08T11:53:31.791Z,15.80
2018-07-08T11:56:05.504Z,15.80
2018-07-08T11:58:38.183Z,15.80
2018-07-08T12:01:10.943Z,15.80
2018-07-08T12:03:43.483Z,15.80
2018-07-08T12:06:16.134Z,15.90
2018-07-08T12:08:50.156Z,15.90
2018-07-08T12:11:22.843Z,16.00
2018-07-08T12:16:27.885Z,16.10
2018-07-08T12:19:02.988Z,16.10
2018-07-08T12:21:35.663Z,16.20
2018-07-08T12:24:09.286Z,16.20
2018-07-08T12:26:42.509Z,16.30
2018-07-08T12:29:16.083Z,16.20
2018-07-08T12:31:49.334Z,16.30
2018-07-08T12:34:22.108Z,16.50
2018-07-08T12:36:54.957Z,16.90
2018-07-08T12:41:58.747Z,17.20
2018-07-08T12:47:52.825Z,17.10
2018-07-08T12:50:26.295Z,16.90
2018-07-08T12:52:59.067Z,16.80
2018-07-08T12:55:31.787Z,16.80
2018-07-08T12:58:04.615Z,17.10
2018-07-08T13:01:00.343Z,17.50
2018-07-08T13:03:33.598Z,17.70
2018-07-08T13:06:06.021Z,17.60
2018-07-08T13:08:38.332Z,17.90
2018-07-08T13:11:10.646Z,17.70
2018-07-08T13:13:42.938Z,17.80
2018-07-08T13:16:15.480Z,18.00
2018-07-08T13:22:09.581Z,17.80
2018-07-08T13:24:42.180Z,18.00
2018-07-08T13:29:46.312Z,18.80
2018-07-08T13:32:41.748Z,19.30
2018-07-08T13:35:14.391Z,19.30
2018-07-08T13:40:18.169Z,19.40
2018-07-08T13:42:50.880Z,19.50
2018-07-08T13:45:24.043Z,19.30
2018-07-08T13:47:56.797Z,19.40
2018-07-08T13:50:29.556Z,19.40
2018-07-08T13:53:02.310Z,19.20
2018-07-08T13:55:36.326Z,19.20
2018-07-08T13:58:10.029Z,19.40
2018-07-08T14:00:42.867Z,19.50
2018-07-08T14:03:16.171Z,20.00
2018-07-08T14:05:49.085Z,20.50
2018-07-08T14:08:58.412Z,20.80
2018-07-08T14:11:30.943Z,20.50
2018-07-08T14:17:34.425Z,20.10
2018-07-08T14:20:08.075Z,20.00
2018-07-08T14:22:41.132Z,20.10
2018-07-08T14:25:14.126Z,20.60
2018-07-08T14:27:47.344Z,20.50
2018-07-08T14:30:20.379Z,20.60
2018-07-08T14:32:53.355Z,20.60
2018-07-08T14:38:56.828Z,20.10
2018-07-08T14:41:29.272Z,20.20
2018-07-08T14:44:01.654Z,20.00
2018-07-08T14:46:34.186Z,20.20
2018-07-08T14:49:06.808Z,20.20
2018-07-08T14:51:39.255Z,20.00
2018-07-08T14:54:12.074Z,19.90
2018-07-08T14:56:44.475Z,20.10
2018-07-08T14:59:16.919Z,20.10
2018-07-08T15:01:49.308Z,20.20
2018-07-08T15:04:21.770Z,20.40
2018-07-08T15:06:54.248Z,20.10
2018-07-08T15:09:26.712Z,20.20
2018-07-08T15:11:59.104Z,19.80
2018-07-08T15:17:39.376Z,20.60
2018-07-08T15:20:12.164Z,20.70
2018-07-08T15:22:45.604Z,21.00
2018-07-08T15:25:18.315Z,21.30
2018-07-08T15:27:51.125Z,21.40
2018-07-08T15:30:23.820Z,21.50
2018-07-08T15:32:56.655Z,22.40
2018-07-08T15:35:29.826Z,22.30
2018-07-08T15:38:02.700Z,22.50
2018-07-08T15:40:36.121Z,22.30
2018-07-08T15:43:08.785Z,22.40
2018-07-08T15:45:41.564Z,22.60
2018-07-08T15:48:14.246Z,21.90
2018-07-08T15:50:47.427Z,22.00
2018-07-08T15:53:20.200Z,21.90
2018-07-08T15:55:52.962Z,21.70
2018-07-08T15:58:25.793Z,22.20
2018-07-08T16:00:58.865Z,22.30
2018-07-08T16:03:32.448Z,22.40
2018-07-08T16:06:05.889Z,23.10
2018-07-08T16:08:38.727Z,22.90
2018-07-08T16:11:11.852Z,22.80
2018-07-08T16:13:44.571Z,22.90
2018-07-08T16:16:17.412Z,23.10
2018-07-08T16:18:50.919Z,22.90
2018-07-08T16:21:23.752Z,22.40
2018-07-08T16:23:56.608Z,22.40
2018-07-08T16:26:29.349Z,22.30
2018-07-08T16:29:02.420Z,22.30
2018-07-08T16:31:35.314Z,22.00
2018-07-08T16:34:09.148Z,22.30
2018-07-08T16:36:42.173Z,22.00
2018-07-08T16:39:15.000Z,22.10
2018-07-08T16:41:47.838Z,23.30
2018-07-08T16:44:21.562Z,23.40
2018-07-08T16:46:55.305Z,23.00
2018-07-08T16:49:28.189Z,23.00
2018-07-08T16:52:01.362Z,22.70
2018-07-08T16:54:34.427Z,23.10
2018-07-08T16:57:07.419Z,23.50
2018-07-08T16:59:41.084Z,24.00
2018-07-08T17:02:14.069Z,23.10
2018-07-08T17:04:47.645Z,23.30
2018-07-08T17:07:21.275Z,23.50
2018-07-08T17:09:58.245Z,23.20
2018-07-08T17:12:31.489Z,23.70
2018-07-08T17:15:05.400Z,24.10
2018-07-08T17:17:38.452Z,25.00
2018-07-08T17:20:11.252Z,24.60
2018-07-08T17:22:43.940Z,23.70
2018-07-08T17:25:16.722Z,24.00
2018-07-08T17:27:49.535Z,24.10
2018-07-08T17:30:22.955Z,24.20
2018-07-08T17:32:55.604Z,24.40
2018-07-08T17:35:30.002Z,24.90
2018-07-08T17:38:03.358Z,25.60
2018-07-08T17:43:56.869Z,24.90
2018-07-08T17:46:29.390Z,24.60
2018-07-08T17:49:01.940Z,24.60
2018-07-08T17:51:34.341Z,24.50
2018-07-08T17:54:08.202Z,23.80
2018-07-08T17:56:40.870Z,23.90
2018-07-08T17:59:46.181Z,23.80
2018-07-08T18:02:19.059Z,24.50
2018-07-08T18:04:51.922Z,24.80
2018-07-08T18:07:24.877Z,24.50
2018-07-08T18:09:57.667Z,23.80
2018-07-08T18:12:30.678Z,24.30
2018-07-08T18:15:03.964Z,25.30
2018-07-08T18:17:38.695Z,25.70
2018-07-08T18:20:11.699Z,25.20
2018-07-08T18:26:05.232Z,24.40
2018-07-08T18:31:58.846Z,25.00
2018-07-08T18:34:31.339Z,24.70
2018-07-08T18:37:05.443Z,24.60
2018-07-08T18:43:00.014Z,26.00
2018-07-08T18:45:33.196Z,25.70
2018-07-08T18:48:06.061Z,24.60
2018-07-08T18:50:42.995Z,24.60
2018-07-08T18:56:36.329Z,25.50
2018-07-08T18:59:08.703Z,25.80
2018-07-08T19:01:40.994Z,25.50
2018-07-08T19:07:46.311Z,25.30
2018-07-08T19:10:19.594Z,26.20
2018-07-08T19:12:52.801Z,26.40
2018-07-08T19:15:25.302Z,25.80
2018-07-08T19:20:29.463Z,25.80
2018-07-08T19:23:02.604Z,25.60
2018-07-08T19:25:42.359Z,25.40
2018-07-08T19:28:47.464Z,26.00
2018-07-08T19:31:19.949Z,25.60
2018-07-08T19:33:53.436Z,25.20
2018-07-08T19:36:26.532Z,25.80
2018-07-08T19:38:59.678Z,26.40
2018-07-08T19:41:31.926Z,25.90
2018-07-08T19:44:04.387Z,25.70
2018-07-08T19:46:36.959Z,26.60
2018-07-08T19:49:09.321Z,25.20
2018-07-08T19:57:38.940Z,25.90
2018-07-08T20:00:11.215Z,26.40
2018-07-08T20:02:43.405Z,25.70
2018-07-08T20:05:15.785Z,25.50
2018-07-08T20:07:48.234Z,25.70
2018-07-08T20:10:20.832Z,25.80
2018-07-08T20:12:53.045Z,25.70
2018-07-08T20:15:25.315Z,26.10
2018-07-08T20:17:57.972Z,26.00
2018-07-08T20:20:30.287Z,26.30
2018-07-08T20:23:02.499Z,25.60
2018-07-08T20:25:34.614Z,24.80
2018-07-08T20:28:06.870Z,25.10
2018-07-08T20:30:39.231Z,24.70
2018-07-08T20:35:42.614Z,25.30
2018-07-08T20:38:14.803Z,25.70
2018-07-08T20:40:46.968Z,26.20
2018-07-08T20:43:19.139Z,26.00
2018-07-08T20:45:51.378Z,26.20
2018-07-08T20:48:23.381Z,25.80
2018-07-08T20:54:16.794Z,25.40
2018-07-08T20:56:49.647Z,25.40
2018-07-08T20:59:22.473Z,25.00
2018-07-08T21:01:55.348Z,25.50
2018-07-08T21:04:51.046Z,25.60
2018-07-08T21:07:23.880Z,26.00
2018-07-08T21:09:56.604Z,25.70
2018-07-08T21:13:07.583Z,25.70
2018-07-08T21:15:40.511Z,25.30
2018-07-08T21:18:13.233Z,25.30
2018-07-08T21:20:45.897Z,25.40
2018-07-08T21:23:19.054Z,25.20
2018-07-08T21:25:52.069Z,24.50
2018-07-08T21:31:55.208Z,24.40
2018-07-08T21:34:28.042Z,24.30
2018-07-08T21:37:00.578Z,24.40
2018-07-08T21:39:33.407Z,24.60
2018-07-08T21:42:05.774Z,25.00
2018-07-08T21:44:38.539Z,25.50
2018-07-08T21:47:11.845Z,25.30
2018-07-08T21:49:44.314Z,24.70
2018-07-08T21:52:17.891Z,24.20
2018-07-08T21:54:51.909Z,24.10
2018-07-08T21:57:24.534Z,23.90
2018-07-08T21:59:59.539Z,24.30
2018-07-08T22:02:33.634Z,23.90
2018-07-08T22:05:06.161Z,23.30
2018-07-08T22:07:42.805Z,23.20
2018-07-08T22:10:15.300Z,23.80
2018-07-08T22:12:47.946Z,24.40
2018-07-08T22:15:21.386Z,24.50
2018-07-08T22:17:53.934Z,24.80
2018-07-08T22:20:26.462Z,24.90
2018-07-08T22:22:59.376Z,24.50
2018-07-08T22:25:32.493Z,23.90
2018-07-08T22:28:04.925Z,23.60
2018-07-08T22:30:37.340Z,23.70
2018-07-08T22:33:09.848Z,23.80
2018-07-08T22:35:42.384Z,23.80
2018-07-08T22:38:14.919Z,23.80
2018-07-08T22:40:47.743Z,23.60
2018-07-08T22:43:20.097Z,24.10
2018-07-08T22:45:53.235Z,24.10
2018-07-08T22:48:26.140Z,24.20
2018-07-08T22:50:58.624Z,24.00
2018-07-08T22:53:31.915Z,24.10
2018-07-08T22:56:04.207Z,24.20
2018-07-08T22:58:37.881Z,24.20
2018-07-08T23:01:19.636Z,24.10
2018-07-08T23:04:00.726Z,24.10
2018-07-08T23:06:33.276Z,24.00
2018-07-08T23:09:07.153Z,23.80
2018-07-08T23:11:39.691Z,23.90
2018-07-08T23:14:12.072Z,23.80
2018-07-08T23:16:44.477Z,23.80
2018-07-08T23:19:17.064Z,23.50
2018-07-08T23:21:49.507Z,23.20
2018-07-08T23:24:22.129Z,23.30
2018-07-08T23:26:54.923Z,23.30
2018-07-08T23:29:27.523Z,23.20
2018-07-08T23:31:59.998Z,23.00
2018-07-08T23:34:32.801Z,23.00
2018-07-08T23:37:05.440Z,22.80
2018-07-08T23:39:38.189Z,22.70
2018-07-08T23:45:31.604Z,22.50
2018-07-08T23:48:03.862Z,22.40
2018-07-08T23:50:36.071Z,22.50
2018-07-08T23:56:29.859Z,22.30
2018-07-08T23:59:02.596Z,22.10
